createdAt,value
2022-12-23T00:01:11.605Z,10.50
2022-12-23T00:04:00.577Z,10.50
2022-12-23T00:06:38.099Z,10.50
2022-12-23T00:10:00.756Z,10.50
2022-12-23T00:12:39.501Z,10.40
2022-12-23T00:15:23.527Z,10.40
2022-12-23T00:18:00.300Z,10.40
2022-12-23T00:20:37.217Z,10.40
2022-12-23T00:23:13.463Z,10.30
2022-12-23T00:25:52.457Z,10.30
2022-12-23T00:28:26.196Z,10.30
2022-12-23T00:31:03.544Z,10.20
2022-12-23T00:33:50.294Z,10.20
2022-12-23T00:36:44.767Z,10.20
2022-12-23T00:40:05.880Z,10.10
2022-12-23T00:42:55.325Z,10.20
2022-12-23T00:45:32.228Z,10.10
2022-12-23T00:48:52.836Z,10.10
2022-12-23T00:51:27.263Z,10.10
2022-12-23T00:53:59.513Z,10.10
2022-12-23T00:56:42.919Z,10.10
2022-12-23T00:59:30.327Z,10.10
2022-12-23T01:02:28.395Z,10.10
2022-12-23T01:05:22.877Z,10.10
2022-12-23T01:08:05.938Z,10.10
2022-12-23T01:10:37.344Z,10.00
2022-12-23T01:13:39.740Z,10.00
2022-12-23T01:16:25.871Z,10.00
2022-12-23T01:18:57.182Z,10.00
2022-12-23T01:21:38.029Z,9.90
2022-12-23T01:24:21.601Z,9.90
2022-12-23T01:26:55.771Z,9.90
2022-12-23T01:29:31.205Z,9.90
2022-12-23T01:32:02.471Z,9.80
2022-12-23T01:34:58.930Z,9.80
2022-12-23T01:38:04.796Z,9.70
2022-12-23T01:40:42.256Z,9.70
2022-12-23T01:43:25.814Z,9.80
2022-12-23T01:45:59.392Z,9.70
2022-12-23T01:48:51.535Z,9.80
2022-12-23T01:51:33.755Z,9.70
2022-12-23T01:54:25.730Z,9.70
2022-12-23T01:57:12.327Z,9.70
2022-12-23T02:00:08.575Z,9.70
2022-12-23T02:03:00.630Z,9.70
2022-12-23T02:05:33.969Z,9.70
2022-12-23T02:08:24.186Z,9.60
2022-12-23T02:10:58.341Z,9.70
2022-12-23T02:14:06.337Z,9.60
2022-12-23T02:16:57.436Z,9.70
2022-12-23T02:19:55.800Z,9.70
2022-12-23T02:22:36.656Z,9.60
2022-12-23T02:25:38.112Z,9.60
2022-12-23T02:28:18.685Z,9.60
2022-12-23T02:31:12.542Z,9.60
2022-12-23T02:33:52.991Z,9.60
2022-12-23T02:37:01.669Z,9.70
2022-12-23T02:39:45.095Z,9.60
2022-12-23T02:42:28.376Z,9.50
2022-12-23T02:45:04.606Z,9.50
2022-12-23T02:47:44.662Z,9.50
2022-12-23T02:50:22.401Z,9.40
2022-12-23T02:53:07.607Z,9.50
2022-12-23T02:55:36.507Z,9.40
2022-12-23T02:58:25.619Z,9.40
2022-12-23T03:01:02.079Z,9.30
2022-12-23T03:03:36.701Z,9.30
2022-12-23T03:06:23.541Z,9.40
2022-12-23T03:09:22.396Z,9.30
2022-12-23T03:12:07.832Z,9.30
2022-12-23T03:14:50.593Z,9.30
2022-12-23T03:17:40.829Z,9.30
2022-12-23T03:20:55.022Z,9.30
2022-12-23T03:23:55.555Z,9.40
2022-12-23T03:26:32.932Z,9.30
2022-12-23T03:29:19.594Z,9.30
2022-12-23T03:31:59.063Z,9.30
2022-12-23T03:34:39.471Z,9.30
2022-12-23T03:37:22.920Z,9.30
2022-12-23T03:40:04.522Z,9.30
2022-12-23T03:43:12.941Z,9.30
2022-12-23T03:46:32.341Z,9.20
2022-12-23T03:49:12.027Z,9.20
2022-12-23T03:51:50.265Z,9.20
2022-12-23T03:54:23.374Z,9.20
2022-12-23T03:57:07.381Z,9.20
2022-12-23T03:59:41.290Z,9.30
2022-12-23T04:02:22.622Z,9.30
2022-12-23T04:05:06.066Z,9.30
2022-12-23T04:07:43.306Z,9.30
2022-12-23T04:10:23.389Z,9.30
2022-12-23T04:13:23.824Z,9.30
2022-12-23T04:15:55.001Z,9.30
2022-12-23T04:18:27.591Z,9.30
2022-12-23T04:21:03.996Z,9.20
2022-12-23T04:23:43.219Z,9.20
2022-12-23T04:26:31.420Z,9.20
2022-12-23T04:29:45.827Z,9.20
2022-12-23T04:32:21.859Z,9.30
2022-12-23T04:34:56.178Z,9.30
2022-12-23T04:37:52.903Z,9.30
2022-12-23T04:40:35.716Z,9.30
2022-12-23T04:43:08.504Z,9.30
2022-12-23T04:46:04.264Z,9.30
2022-12-23T04:48:54.291Z,9.30
2022-12-23T04:51:32.725Z,9.30
2022-12-23T04:54:05.246Z,9.20
2022-12-23T04:59:29.817Z,9.20
2022-12-23T05:05:02.470Z,9.20
2022-12-23T05:07:38.484Z,9.20
2022-12-23T05:10:25.274Z,9.20
2022-12-23T05:15:50.240Z,9.20
2022-12-23T05:18:33.778Z,9.30
2022-12-23T05:21:11.427Z,9.20
2022-12-23T05:24:13.298Z,9.30
2022-12-23T05:27:00.440Z,9.30
2022-12-23T05:29:40.224Z,9.20
2022-12-23T05:32:11.940Z,9.30
2022-12-23T05:34:48.474Z,9.30
2022-12-23T05:37:23.057Z,9.30
2022-12-23T05:39:59.838Z,9.30
2022-12-23T05:42:41.546Z,9.20
2022-12-23T05:45:33.952Z,9.20
2022-12-23T05:48:10.460Z,9.20
2022-12-23T05:50:43.410Z,9.20
2022-12-23T05:53:32.315Z,9.20
2022-12-23T05:56:18.703Z,9.20
2022-12-23T05:59:27.655Z,9.10
2022-12-23T06:02:44.319Z,9.10
2022-12-23T06:05:14.675Z,9.00
2022-12-23T06:08:15.163Z,9.00
2022-12-23T06:11:29.522Z,9.00
2022-12-23T06:14:02.076Z,9.00
2022-12-23T06:19:23.937Z,9.10
2022-12-23T06:21:54.859Z,9.00
2022-12-23T06:24:29.947Z,9.00
2022-12-23T06:27:10.491Z,9.00
2022-12-23T06:29:44.729Z,8.90
2022-12-23T06:32:13.336Z,8.90
2022-12-23T06:34:40.979Z,8.80
2022-12-23T06:37:08.728Z,8.80
2022-12-23T06:39:39.643Z,8.80
2022-12-23T06:42:06.861Z,8.80
2022-12-23T06:44:34.099Z,8.70
2022-12-23T06:47:01.324Z,8.70
2022-12-23T06:49:28.365Z,8.70
2022-12-23T06:51:55.327Z,8.70
2022-12-23T06:54:22.434Z,8.70
2022-12-23T06:56:49.330Z,8.70
2022-12-23T06:59:17.025Z,8.60
2022-12-23T07:01:44.302Z,8.60
2022-12-23T07:04:11.389Z,8.70
2022-12-23T07:06:39.604Z,8.60
2022-12-23T07:09:07.679Z,8.60
2022-12-23T07:11:34.930Z,8.60
2022-12-23T07:14:01.985Z,8.60
2022-12-23T07:16:29.349Z,8.60
2022-12-23T07:18:56.665Z,8.60
2022-12-23T07:21:29.047Z,8.50
2022-12-23T07:23:57.395Z,8.50
2022-12-23T07:26:24.347Z,8.50
2022-12-23T07:28:51.405Z,8.50
2022-12-23T07:31:18.766Z,8.50
2022-12-23T07:33:46.153Z,8.50
2022-12-23T07:36:13.259Z,8.50
2022-12-23T07:38:43.162Z,8.50
2022-12-23T07:41:10.071Z,8.50
2022-12-23T07:43:37.017Z,8.50
2022-12-23T07:46:07.883Z,8.50
2022-12-23T07:48:34.914Z,8.40
2022-12-23T07:51:02.500Z,8.40
2022-12-23T07:53:29.695Z,8.50
2022-12-23T07:55:57.076Z,8.50
2022-12-23T07:58:24.432Z,8.50
2022-12-23T08:00:51.726Z,8.50
2022-12-23T08:03:18.915Z,8.60
2022-12-23T08:05:45.991Z,8.60
2022-12-23T08:08:13.230Z,8.50
2022-12-23T08:10:47.690Z,8.50
2022-12-23T08:13:17.963Z,8.60
2022-12-23T08:15:45.119Z,8.50
2022-12-23T08:18:12.851Z,8.50
2022-12-23T08:20:39.912Z,8.50
2022-12-23T08:23:07.164Z,8.50
2022-12-23T08:25:34.118Z,8.50
2022-12-23T08:28:01.242Z,8.50
2022-12-23T08:30:28.379Z,8.60
2022-12-23T08:32:55.346Z,8.60
2022-12-23T08:35:22.510Z,8.60
2022-12-23T08:37:49.593Z,8.60
2022-12-23T08:40:19.816Z,8.60
2022-12-23T08:42:47.245Z,8.60
2022-12-23T08:45:16.555Z,8.60
2022-12-23T08:47:43.559Z,8.60
2022-12-23T08:50:12.256Z,8.60
2022-12-23T08:52:39.295Z,8.50
2022-12-23T08:55:06.430Z,8.50
2022-12-23T08:57:34.330Z,8.50
2022-12-23T09:00:01.475Z,8.60
2022-12-23T09:02:28.597Z,8.50
2022-12-23T09:04:55.785Z,8.60
2022-12-23T09:07:22.995Z,8.60
2022-12-23T09:09:50.121Z,8.60
2022-12-23T09:12:17.158Z,8.70
2022-12-23T09:14:44.771Z,8.70
2022-12-23T09:17:11.934Z,8.70
2022-12-23T09:19:39.230Z,8.80
2022-12-23T09:22:06.450Z,8.80
2022-12-23T09:24:33.528Z,8.80
2022-12-23T09:27:00.583Z,8.80
2022-12-23T09:29:27.733Z,8.80
2022-12-23T09:31:55.068Z,8.80
2022-12-23T09:34:22.189Z,8.80
2022-12-23T09:36:55.134Z,8.80
2022-12-23T09:39:22.680Z,8.90
2022-12-23T09:42:05.341Z,8.90
2022-12-23T09:44:32.400Z,8.90
2022-12-23T09:47:03.564Z,9.00
2022-12-23T09:52:55.439Z,9.00
2022-12-23T09:55:22.590Z,9.00
2022-12-23T09:57:51.261Z,9.00
2022-12-23T10:00:18.513Z,9.10
2022-12-23T10:03:01.367Z,9.10
2022-12-23T10:05:31.541Z,9.20
2022-12-23T10:07:59.467Z,9.20
2022-12-23T10:10:33.185Z,9.20
2022-12-23T10:13:00.745Z,9.20
2022-12-23T10:15:44.009Z,9.20
2022-12-23T10:18:31.276Z,9.20
2022-12-23T10:20:59.919Z,9.20
2022-12-23T10:23:34.664Z,9.30
2022-12-23T10:26:01.959Z,9.40
2022-12-23T10:28:29.577Z,9.60
2022-12-23T10:34:11.526Z,9.50
2022-12-23T10:36:47.354Z,9.50
2022-12-23T10:39:19.513Z,9.60
2022-12-23T10:41:59.032Z,9.60
2022-12-23T10:44:41.543Z,9.60
2022-12-23T10:47:24.747Z,9.70
2022-12-23T10:50:10.637Z,9.80
2022-12-23T10:52:38.024Z,9.80
2022-12-23T10:55:05.496Z,9.70
2022-12-23T10:57:32.543Z,9.80
2022-12-23T10:59:59.675Z,9.90
2022-12-23T11:02:40.607Z,9.90
2022-12-23T11:05:12.504Z,10.00
2022-12-23T11:07:44.789Z,10.10
2022-12-23T11:10:19.703Z,10.20
2022-12-23T11:12:48.343Z,10.30
2022-12-23T11:15:24.831Z,10.30
2022-12-23T11:17:59.122Z,10.40
2022-12-23T11:20:26.249Z,10.40
2022-12-23T11:22:54.045Z,10.50
2022-12-23T11:25:32.026Z,10.50
2022-12-23T11:28:06.727Z,10.50
2022-12-23T11:30:36.576Z,10.50
2022-12-23T11:33:03.835Z,10.50
2022-12-23T11:35:31.640Z,10.50
2022-12-23T11:37:59.119Z,10.60
2022-12-23T11:40:49.299Z,10.70
2022-12-23T11:43:17.133Z,10.80
2022-12-23T11:45:44.463Z,10.80
2022-12-23T11:48:28.065Z,10.90
2022-12-23T11:50:58.913Z,11.00
2022-12-23T11:53:26.219Z,11.00
2022-12-23T11:55:58.155Z,11.10
2022-12-23T11:58:25.385Z,11.10
2022-12-23T12:00:56.101Z,11.20
2022-12-23T12:03:24.958Z,11.20
2022-12-23T12:05:53.583Z,11.30
2022-12-23T12:08:21.669Z,11.30
2022-12-23T12:10:52.705Z,11.30
2022-12-23T12:13:28.095Z,11.40
2022-12-23T12:16:14.034Z,11.50
2022-12-23T12:18:41.801Z,11.80
2022-12-23T12:21:16.815Z,12.20
2022-12-23T12:23:55.433Z,12.40
2022-12-23T12:26:41.237Z,12.70
2022-12-23T12:29:14.749Z,12.70
2022-12-23T12:31:43.150Z,12.60
2022-12-23T12:34:19.524Z,12.50
2022-12-23T12:36:51.249Z,12.60
2022-12-23T12:39:20.161Z,12.70
2022-12-23T12:42:12.079Z,12.80
2022-12-23T12:44:54.945Z,12.90
2022-12-23T12:47:52.639Z,12.90
2022-12-23T12:50:20.816Z,12.90
2022-12-23T12:52:48.038Z,13.10
2022-12-23T12:55:32.123Z,13.20
2022-12-23T12:58:02.645Z,13.30
2022-12-23T13:00:29.710Z,13.40
2022-12-23T13:03:32.256Z,13.30
2022-12-23T13:05:59.270Z,13.10
2022-12-23T13:08:35.573Z,13.10
2022-12-23T13:11:03.153Z,13.00
2022-12-23T13:13:37.543Z,13.00
2022-12-23T13:16:23.629Z,13.00
2022-12-23T13:18:53.966Z,13.00
2022-12-23T13:21:40.974Z,12.90
2022-12-23T13:24:09.386Z,12.90
2022-12-23T13:26:38.470Z,12.80
2022-12-23T13:29:06.494Z,12.80
2022-12-23T13:31:36.197Z,12.80
2022-12-23T13:34:33.368Z,12.80
2022-12-23T13:37:09.545Z,12.80
2022-12-23T13:39:43.412Z,12.90
2022-12-23T13:42:12.262Z,12.90
2022-12-23T13:44:39.279Z,12.90
2022-12-23T13:47:06.414Z,12.90
2022-12-23T13:49:36.607Z,12.90
2022-12-23T13:52:07.224Z,12.70
2022-12-23T13:54:40.884Z,12.70
2022-12-23T13:57:17.198Z,12.80
2022-12-23T14:00:04.900Z,12.80
2022-12-23T14:02:52.721Z,12.80
2022-12-23T14:05:39.262Z,12.80
2022-12-23T14:08:18.858Z,12.80
2022-12-23T14:10:57.020Z,12.80
2022-12-23T14:13:24.756Z,12.90
2022-12-23T14:15:56.957Z,12.90
2022-12-23T14:18:39.861Z,12.90
2022-12-23T14:21:11.727Z,12.90
2022-12-23T14:24:21.325Z,12.90
2022-12-23T14:26:50.984Z,12.90
2022-12-23T14:29:38.694Z,12.80
2022-12-23T14:32:23.967Z,12.80
2022-12-23T14:35:03.985Z,12.70
2022-12-23T14:37:34.688Z,12.60
2022-12-23T14:40:20.375Z,12.50
2022-12-23T14:42:47.788Z,12.40
2022-12-23T14:45:28.811Z,12.30
2022-12-23T14:47:56.075Z,12.20
2022-12-23T14:50:43.008Z,12.10
2022-12-23T14:53:30.346Z,12.10
2022-12-23T14:56:09.796Z,12.00
2022-12-23T14:58:38.020Z,12.00
2022-12-23T15:01:13.350Z,11.90
2022-12-23T15:03:41.611Z,11.80
2022-12-23T15:06:08.562Z,11.80
2022-12-23T15:08:39.673Z,11.80
2022-12-23T15:11:08.043Z,11.80
2022-12-23T15:13:35.016Z,11.70
2022-12-23T15:16:02.542Z,11.60
2022-12-23T15:18:29.815Z,11.60
2022-12-23T15:21:04.244Z,11.60
2022-12-23T15:23:33.480Z,11.60
2022-12-23T15:26:00.544Z,11.50
2022-12-23T15:28:37.863Z,11.50
2022-12-23T15:31:05.123Z,11.40
2022-12-23T15:36:35.833Z,11.20
2022-12-23T15:39:03.770Z,11.10
2022-12-23T15:41:30.760Z,11.10
2022-12-23T15:43:58.660Z,11.10
2022-12-23T15:46:30.061Z,11.00
2022-12-23T15:48:57.870Z,11.00
2022-12-23T15:52:05.698Z,11.00
2022-12-23T15:54:32.630Z,10.90
2022-12-23T15:57:01.720Z,10.90
2022-12-23T15:59:40.906Z,10.90
2022-12-23T16:05:32.167Z,10.80
2022-12-23T16:08:21.810Z,10.80
2022-12-23T16:11:10.604Z,10.80
2022-12-23T16:13:41.599Z,10.80
2022-12-23T16:16:20.195Z,10.70
2022-12-23T16:18:48.207Z,10.70
2022-12-23T16:21:17.716Z,10.60
2022-12-23T16:23:49.757Z,10.60
2022-12-23T16:26:23.080Z,10.50
2022-12-23T16:28:51.512Z,10.40
2022-12-23T16:31:19.375Z,10.40
2022-12-23T16:33:51.888Z,10.30
2022-12-23T16:36:26.348Z,10.30
2022-12-23T16:38:59.754Z,10.40
2022-12-23T16:41:28.014Z,10.40
2022-12-23T16:43:55.667Z,10.50
2022-12-23T16:46:23.538Z,10.50
2022-12-23T16:49:00.128Z,10.60
2022-12-23T16:51:42.578Z,10.70
2022-12-23T16:54:16.882Z,10.70
2022-12-23T16:56:44.297Z,10.70
2022-12-23T16:59:11.517Z,10.70
2022-12-23T17:01:40.802Z,10.70
2022-12-23T17:04:08.945Z,10.70
2022-12-23T17:06:52.701Z,10.70
2022-12-23T17:09:23.514Z,10.60
2022-12-23T17:11:56.694Z,10.60
2022-12-23T17:14:28.345Z,10.60
2022-12-23T17:17:07.141Z,10.50
2022-12-23T17:19:44.965Z,10.60
2022-12-23T17:22:17.775Z,10.70
2022-12-23T17:24:44.927Z,10.70
2022-12-23T17:27:13.772Z,10.70
2022-12-23T17:29:57.488Z,10.70
2022-12-23T17:32:27.650Z,10.80
2022-12-23T17:34:55.008Z,10.80
2022-12-23T17:37:24.431Z,10.70
2022-12-23T17:39:59.270Z,10.70
2022-12-23T17:42:29.051Z,10.70
2022-12-23T17:45:01.525Z,10.60
2022-12-23T17:47:43.320Z,10.60
2022-12-23T17:50:12.026Z,10.50
2022-12-23T17:53:05.335Z,10.40
2022-12-23T17:55:45.833Z,10.40
2022-12-23T17:58:17.501Z,10.30
2022-12-23T18:00:50.045Z,10.20
2022-12-23T18:03:24.049Z,10.20
2022-12-23T18:06:01.266Z,10.20
2022-12-23T18:08:29.937Z,10.10
2022-12-23T18:11:00.486Z,10.10
2022-12-23T18:14:00.253Z,10.10
2022-12-23T18:19:18.116Z,10.20
2022-12-23T18:30:28.893Z,10.30
2022-12-23T18:36:00.055Z,10.10
2022-12-23T18:38:27.841Z,10.10
2022-12-23T18:41:00.440Z,10.00
2022-12-23T18:43:35.104Z,10.00
2022-12-23T18:46:10.677Z,10.10
2022-12-23T18:48:38.849Z,10.00
2022-12-23T18:51:10.997Z,9.90
2022-12-23T18:53:51.966Z,9.90
2022-12-23T18:56:23.108Z,9.90
2022-12-23T18:58:57.043Z,9.90
2022-12-23T19:01:24.450Z,9.80
2022-12-23T19:03:52.237Z,9.80
2022-12-23T19:06:25.537Z,9.80
2022-12-23T19:08:56.097Z,9.80
2022-12-23T19:11:24.200Z,9.90
2022-12-23T19:13:51.852Z,9.80
2022-12-23T19:16:25.744Z,9.80
2022-12-23T19:18:55.840Z,9.70
2022-12-23T19:21:29.941Z,9.70
2022-12-23T19:23:58.783Z,9.70
2022-12-23T19:26:36.492Z,9.60
2022-12-23T19:29:09.307Z,9.60
2022-12-23T19:31:36.940Z,9.60
2022-12-23T19:34:14.655Z,9.60
2022-12-23T19:36:53.386Z,9.60
2022-12-23T19:39:31.573Z,9.50
2022-12-23T19:42:04.123Z,9.60
2022-12-23T19:44:47.242Z,9.60
2022-12-23T19:47:25.526Z,9.50
2022-12-23T19:49:53.229Z,9.50
2022-12-23T19:52:22.901Z,9.40
2022-12-23T19:55:00.885Z,9.40
2022-12-23T19:57:29.475Z,9.40
2022-12-23T20:00:02.055Z,9.30
2022-12-23T20:02:39.080Z,9.40
2022-12-23T20:05:35.325Z,9.40
2022-12-23T20:08:08.237Z,9.40
2022-12-23T20:10:43.951Z,9.30
2022-12-23T20:13:14.697Z,9.30
2022-12-23T20:15:42.088Z,9.40
2022-12-23T20:18:10.809Z,9.30
2022-12-23T20:20:40.111Z,9.20
2022-12-23T20:23:08.149Z,9.30
2022-12-23T20:25:36.668Z,9.20
2022-12-23T20:28:21.330Z,9.20
2022-12-23T20:31:30.546Z,9.20
2022-12-23T20:34:05.293Z,9.20
2022-12-23T20:39:44.700Z,9.10
2022-12-23T20:42:19.886Z,9.10
2022-12-23T20:44:55.464Z,9.10
2022-12-23T20:47:30.005Z,9.00
2022-12-23T20:50:13.250Z,9.00
2022-12-23T20:52:49.082Z,9.00
2022-12-23T20:55:30.978Z,9.00
2022-12-23T20:58:27.699Z,8.90
2022-12-23T21:01:18.191Z,8.90
2022-12-23T21:03:59.415Z,8.90
2022-12-23T21:06:56.448Z,8.90
2022-12-23T21:09:39.542Z,8.80
2022-12-23T21:12:11.205Z,8.80
2022-12-23T21:14:44.218Z,8.80
2022-12-23T21:17:24.220Z,8.80
2022-12-23T21:20:06.993Z,8.80
2022-12-23T21:25:18.418Z,8.70
2022-12-23T21:27:53.328Z,8.60
2022-12-23T21:30:20.754Z,8.60
2022-12-23T21:32:51.343Z,8.50
2022-12-23T21:35:22.039Z,8.50
2022-12-23T21:37:53.142Z,8.50
2022-12-23T21:40:25.968Z,8.50
2022-12-23T21:42:55.216Z,8.50
2022-12-23T21:45:34.502Z,8.50
2022-12-23T21:48:04.817Z,8.50
2022-12-23T21:50:34.858Z,8.50
2022-12-23T21:53:03.939Z,8.50
2022-12-23T21:55:34.678Z,8.50
2022-12-23T21:58:09.320Z,8.40
2022-12-23T22:00:46.795Z,8.50
2022-12-23T22:03:24.404Z,8.50
2022-12-23T22:06:11.256Z,8.50
2022-12-23T22:08:42.724Z,8.40
2022-12-23T22:11:45.804Z,8.40
2022-12-23T22:14:31.010Z,8.40
2022-12-23T22:17:10.184Z,8.40
2022-12-23T22:19:43.484Z,8.40
2022-12-23T22:22:18.540Z,8.40
2022-12-23T22:24:53.611Z,8.50
2022-12-23T22:27:37.466Z,8.50
2022-12-23T22:33:14.622Z,8.70
2022-12-23T22:35:56.343Z,8.80
2022-12-23T22:38:27.260Z,8.70
2022-12-23T22:40:56.602Z,8.80
2022-12-23T22:43:37.028Z,8.80
2022-12-23T22:46:05.864Z,8.70
2022-12-23T22:48:42.289Z,8.70
2022-12-23T22:51:26.285Z,8.70
2022-12-23T22:53:54.303Z,8.70
2022-12-23T22:56:31.524Z,8.70
2022-12-23T22:59:05.282Z,8.70
2022-12-23T23:01:41.169Z,8.60
2022-12-23T23:07:11.245Z,8.70
2022-12-23T23:09:41.181Z,8.60
2022-12-23T23:12:09.523Z,8.70
2022-12-23T23:15:02.283Z,8.60
2022-12-23T23:17:42.400Z,8.60
2022-12-23T23:20:23.429Z,8.60
2022-12-23T23:23:00.937Z,8.50
2022-12-23T23:25:35.368Z,8.60
2022-12-23T23:28:15.450Z,8.70
2022-12-23T23:30:59.079Z,8.70
2022-12-23T23:34:02.230Z,8.60
2022-12-23T23:36:47.655Z,8.60
2022-12-23T23:39:26.511Z,8.60
2022-12-23T23:41:58.859Z,8.70
2022-12-23T23:47:42.338Z,8.80
2022-12-23T23:50:22.233Z,8.80
2022-12-23T23:52:55.844Z,8.90
2022-12-23T23:55:32.347Z,8.90
2022-12-23T23:58:37.636Z,8.90
